Time;durP1;ratioP1;P1;durP2;ratioP2;P2;SDS_P1;SDS_P2;PMS_P1;PMS_P2;Temp;Humidity;BMP_temperature;BMP_pressure;BME280_temperature;BME280_humidity;BME280_pressure;Samples;Min_cycle;Max_cycle;Signal;HPM_P1;HPM_P2
2022/11/02 05:01:48;;;;;;;13.55;2.40;;;12.70;99.90;;;;;;5373216;23;20092;-69
2022/11/02 05:04:13;;;;;;;9.83;1.97;;;12.70;99.90;;;;;;5032968;28;20061;-70
2022/11/02 05:06:39;;;;;;;6.13;1.60;;;12.70;99.90;;;;;;5024544;28;20029;-70
2022/11/02 05:09:04;;;;;;;11.47;2.10;;;12.80;99.90;;;;;;5033171;28;20116;-68
2022/11/02 05:11:30;;;;;;;12.90;1.63;;;12.90;99.90;;;;;;5032164;28;20095;-69
2022/11/02 05:13:55;;;;;;;7.00;1.60;;;12.90;99.90;;;;;;5032648;28;20028;-69
2022/11/02 05:16:21;;;;;;;6.47;2.03;;;12.90;99.90;;;;;;5052708;23;20025;-67
2022/11/02 05:18:48;;;;;;;8.03;2.00;;;12.90;99.90;;;;;;5000342;28;20038;-69
2022/11/02 05:21:13;;;;;;;8.65;1.98;;;13.00;99.90;;;;;;4999068;28;20105;-69
2022/11/02 05:23:39;;;;;;;12.17;2.53;;;12.90;99.90;;;;;;4998034;28;20439;-69
2022/11/02 05:26:08;;;;;;;7.60;1.50;;;12.90;99.90;;;;;;5009579;28;20030;-68
2022/11/02 05:28:33;;;;;;;9.50;1.73;;;13.00;99.90;;;;;;5018707;28;20062;-69
2022/11/02 05:31:00;;;;;;;11.87;1.70;;;13.00;99.90;;;;;;5019774;28;20033;-69
2022/11/02 05:33:28;;;;;;;10.93;1.90;;;13.00;99.90;;;;;;5018826;28;20026;-69
2022/11/02 05:35:55;;;;;;;13.15;2.30;;;13.00;99.90;;;;;;5016766;28;20033;-69
2022/11/02 05:38:22;;;;;;;11.68;1.98;;;13.10;99.90;;;;;;5018097;28;20022;-70
2022/11/02 05:40:55;;;;;;;8.88;1.63;;;13.10;99.90;;;;;;5018197;28;20509;-69
2022/11/02 05:43:21;;;;;;;9.63;2.45;;;13.10;99.90;;;;;;5018420;28;20026;-69
2022/11/02 05:45:55;;;;;;;8.10;1.90;;;13.00;99.90;;;;;;5017481;28;20496;-68
2022/11/02 05:48:22;;;;;;;8.50;1.92;;;13.00;99.90;;;;;;5015766;28;20041;-69
2022/11/02 05:50:48;;;;;;;10.25;2.20;;;12.90;99.90;;;;;;5017879;28;20053;-70
2022/11/02 05:53:13;;;;;;;8.77;2.03;;;12.90;99.90;;;;;;5017970;28;20030;-69
2022/11/02 05:55:39;;;;;;;4.73;1.67;;;12.90;99.90;;;;;;5016986;28;20030;-69
2022/11/02 05:58:04;;;;;;;9.33;1.70;;;12.90;99.90;;;;;;5018342;28;20442;-68
2022/11/02 06:00:30;;;;;;;15.13;2.27;;;13.00;99.90;;;;;;5016759;28;20438;-69
2022/11/02 06:02:57;;;;;;;8.40;1.90;;;12.90;99.90;;;;;;5016184;28;20037;-69
2022/11/02 06:05:23;;;;;;;9.32;2.30;;;12.90;99.90;;;;;;5017949;28;20026;-69
2022/11/02 06:07:48;;;;;;;13.40;2.28;;;12.90;99.90;;;;;;5016507;28;20030;-68
2022/11/02 06:10:14;;;;;;;8.57;2.70;;;12.80;99.90;;;;;;5018495;28;20037;-69
2022/11/02 06:12:39;;;;;;;11.27;1.97;;;12.80;99.90;;;;;;5016476;28;20033;-69
2022/11/02 06:15:05;;;;;;;8.57;2.00;;;12.60;99.90;;;;;;5017087;28;20084;-69
2022/11/02 06:17:38;;;;;;;9.13;2.05;;;12.70;99.90;;;;;;5014836;28;20109;-69
2022/11/02 06:20:04;;;;;;;9.98;2.33;;;12.60;99.90;;;;;;5014982;28;20022;-69
2022/11/02 06:22:30;;;;;;;8.65;2.15;;;12.60;99.90;;;;;;5014843;28;20403;-69
2022/11/02 06:24:55;;;;;;;14.73;2.37;;;12.60;99.90;;;;;;5014815;28;20030;-69
2022/11/02 06:27:21;;;;;;;9.77;2.37;;;12.40;99.90;;;;;;5014779;28;20034;-69
2022/11/02 06:29:46;;;;;;;10.70;3.00;;;12.40;99.90;;;;;;5016362;28;20030;-68
2022/11/02 06:32:12;;;;;;;9.20;2.40;;;12.40;99.90;;;;;;5016231;28;20025;-70
2022/11/02 06:34:37;;;;;;;10.23;2.28;;;12.40;99.90;;;;;;5014858;28;20095;-70
2022/11/02 06:37:03;;;;;;;7.07;2.43;;;12.40;99.90;;;;;;5017361;28;20483;-69
2022/11/02 06:39:29;;;;;;;10.27;2.50;;;12.40;99.90;;;;;;5015997;28;20030;-70
2022/11/02 06:41:54;;;;;;;13.97;3.77;;;12.30;99.90;;;;;;5014934;28;20265;-68
2022/11/02 06:44:20;;;;;;;7.47;2.17;;;12.30;99.90;;;;;;5015946;28;20033;-69
2022/11/02 06:46:45;;;;;;;11.20;2.77;;;12.20;99.90;;;;;;5015529;28;20018;-68
2022/11/02 06:49:11;;;;;;;7.10;2.17;;;12.20;99.90;;;;;;5016356;28;20327;-69
2022/11/02 06:51:36;;;;;;;9.07;2.37;;;12.20;99.90;;;;;;5015750;28;20037;-69
2022/11/02 06:54:02;;;;;;;12.03;3.10;;;12.20;99.90;;;;;;5016140;28;20037;-69
2022/11/02 06:56:27;;;;;;;11.30;2.73;;;12.20;99.90;;;;;;5015804;28;20067;-69
2022/11/02 06:58:53;;;;;;;12.13;2.73;;;12.20;99.90;;;;;;5016380;28;20110;-68
2022/11/02 07:01:18;;;;;;;11.07;2.57;;;12.20;99.90;;;;;;5015806;28;20034;-69
2022/11/02 07:03:44;;;;;;;12.57;2.60;;;12.20;99.90;;;;;;5015750;28;20475;-68
2022/11/02 07:06:09;;;;;;;8.40;2.60;;;12.30;99.90;;;;;;5014577;28;20472;-69
2022/11/02 07:08:35;;;;;;;11.17;2.77;;;12.20;99.90;;;;;;5004062;28;20034;-67
2022/11/02 07:11:01;;;;;;;11.40;2.58;;;12.30;99.90;;;;;;4998945;28;20042;-66
2022/11/02 07:13:26;;;;;;;9.73;2.47;;;12.30;99.90;;;;;;5016142;28;20030;-67
2022/11/02 07:15:53;;;;;;;7.80;2.37;;;12.40;99.90;;;;;;5016586;28;20080;-67
2022/11/02 07:18:19;;;;;;;8.02;2.50;;;12.50;99.90;;;;;;5016066;28;20466;-67
2022/11/02 07:20:44;;;;;;;10.85;2.70;;;12.50;99.90;;;;;;5016205;28;20026;-68
2022/11/02 07:23:10;;;;;;;7.67;2.23;;;12.60;99.90;;;;;;5014436;28;20076;-67
2022/11/02 07:25:36;;;;;;;9.77;2.70;;;12.70;99.90;;;;;;5015647;28;20033;-68
2022/11/02 07:28:02;;;;;;;10.57;2.47;;;12.70;99.90;;;;;;5010698;28;20038;-69
2022/11/02 07:30:29;;;;;;;13.40;2.72;;;12.80;99.90;;;;;;4996980;28;20138;-67
2022/11/02 07:32:54;;;;;;;14.13;3.08;;;12.90;99.90;;;;;;5002551;28;20041;-67
2022/11/02 07:35:20;;;;;;;9.87;2.30;;;12.90;99.90;;;;;;5016677;28;20026;-67
2022/11/02 07:38:00;;;;;;;11.27;2.97;;;12.90;99.90;;;;;;5015047;28;20212;-67
2022/11/02 07:40:27;;;;;;;12.82;3.03;;;12.80;99.90;;;;;;5014625;28;20076;-66
2022/11/02 07:42:53;;;;;;;10.60;2.35;;;12.80;99.90;;;;;;5016248;28;20025;-68
2022/11/02 07:45:20;;;;;;;9.48;2.65;;;12.80;99.90;;;;;;5012605;28;20034;-68
2022/11/02 07:47:46;;;;;;;7.20;2.38;;;12.80;99.90;;;;;;5010218;28;20442;-68
2022/11/02 07:50:14;;;;;;;7.00;2.28;;;12.80;99.90;;;;;;5013700;28;20028;-66
2022/11/02 07:52:47;;;;;;;12.55;2.60;;;12.90;99.90;;;;;;5010250;28;20092;-68
2022/11/02 07:55:18;;;;;;;8.95;2.10;;;12.90;99.90;;;;;;5013281;28;20036;-68
2022/11/02 07:57:53;;;;;;;7.57;2.10;;;13.00;99.90;;;;;;5013335;28;20045;-67
2022/11/02 08:00:18;;;;;;;9.70;2.25;;;13.10;99.90;;;;;;5006844;28;20033;-68
2022/11/02 08:02:44;;;;;;;9.87;2.20;;;13.00;99.90;;;;;;5005703;28;20398;-68
2022/11/02 08:05:09;;;;;;;11.27;2.20;;;13.10;99.90;;;;;;5015064;28;20035;-67
2022/11/02 08:07:35;;;;;;;6.90;1.60;;;13.20;99.90;;;;;;5013116;28;20065;-68
2022/11/02 08:10:00;;;;;;;10.27;1.80;;;13.20;99.90;;;;;;4994089;28;20181;-69
2022/11/02 08:12:26;;;;;;;8.00;2.20;;;13.30;99.90;;;;;;4994392;28;20080;-71
2022/11/02 08:14:52;;;;;;;8.38;1.80;;;13.30;99.90;;;;;;4993920;28;20026;-70
2022/11/02 08:17:17;;;;;;;14.23;2.33;;;13.40;99.90;;;;;;4993363;28;20030;-68
2022/11/02 08:19:44;;;;;;;7.78;2.25;;;13.50;99.90;;;;;;4994642;28;20443;-69
2022/11/02 08:22:10;;;;;;;5.63;1.83;;;13.50;99.90;;;;;;5000082;28;20021;-70
2022/11/02 08:24:35;;;;;;;10.83;2.00;;;13.50;99.90;;;;;;5015439;28;20064;-68
2022/11/02 08:27:01;;;;;;;9.83;2.37;;;13.50;99.90;;;;;;5016109;28;20025;-68
2022/11/02 08:29:26;;;;;;;7.47;1.50;;;13.70;99.90;;;;;;5012195;28;20113;-70
2022/11/02 08:31:52;;;;;;;7.07;1.63;;;13.70;99.90;;;;;;5016693;28;20022;-68
2022/11/02 08:34:17;;;;;;;6.10;2.07;;;13.70;99.90;;;;;;5011802;28;20398;-68
2022/11/02 08:36:43;;;;;;;7.83;1.80;;;13.80;99.90;;;;;;5009663;28;20026;-67
2022/11/02 08:39:08;;;;;;;8.63;1.80;;;13.90;99.90;;;;;;5014325;28;20037;-68
2022/11/02 08:41:34;;;;;;;9.47;1.80;;;14.00;99.90;;;;;;5012593;28;20017;-68
2022/11/02 08:43:59;;;;;;;7.43;1.80;;;14.10;99.90;;;;;;5013457;28;20104;-68
2022/11/02 08:46:25;;;;;;;7.37;1.43;;;14.30;99.90;;;;;;4999217;28;20037;-71
2022/11/02 08:48:50;;;;;;;8.00;2.43;;;14.50;99.90;;;;;;5003049;28;20031;-70
2022/11/02 08:51:16;;;;;;;7.80;2.60;;;14.60;99.90;;;;;;5009828;28;20088;-68
2022/11/02 08:53:42;;;;;;;9.03;1.87;;;14.80;99.90;;;;;;5012743;28;20026;-69
2022/11/02 08:56:07;;;;;;;8.17;3.10;;;14.80;99.90;;;;;;5013365;28;20105;-69
2022/11/02 08:58:33;;;;;;;5.73;1.97;;;14.90;99.90;;;;;;5012219;28;20269;-69
2022/11/02 09:00:58;;;;;;;10.13;2.13;;;14.90;99.90;;;;;;5012507;28;20014;-68
2022/11/02 09:03:24;;;;;;;7.60;2.00;;;15.00;99.90;;;;;;5011921;28;20319;-71
2022/11/02 09:05:55;;;;;;;11.32;2.15;;;15.10;99.90;;;;;;5012769;28;20038;-68
2022/11/02 09:08:20;;;;;;;7.45;1.63;;;15.10;99.90;;;;;;5012415;28;20057;-70
2022/11/02 09:10:49;;;;;;;8.77;2.33;;;15.30;99.90;;;;;;5011732;28;20038;-69
2022/11/02 09:13:19;;;;;;;8.73;2.08;;;15.40;99.90;;;;;;5000908;28;20037;-66
2022/11/02 09:15:48;;;;;;;9.45;2.03;;;15.30;99.90;;;;;;5001991;28;20483;-67
2022/11/02 09:18:14;;;;;;;9.70;1.80;;;15.40;99.90;;;;;;4993827;28;20034;-67
2022/11/02 09:20:39;;;;;;;11.20;2.53;;;15.60;99.90;;;;;;5007694;28;20037;-66
2022/11/02 09:23:05;;;;;;;10.57;1.97;;;15.70;99.90;;;;;;5012611;28;20036;-68
2022/11/02 09:25:31;;;;;;;9.73;2.97;;;15.80;99.90;;;;;;5013495;28;20351;-69
2022/11/02 09:27:57;;;;;;;5.13;1.65;;;16.00;99.90;;;;;;5012399;28;20680;-68
2022/11/02 09:30:24;;;;;;;12.93;2.42;;;16.10;99.90;;;;;;5012629;28;20088;-70
2022/11/02 09:32:56;;;;;;;10.57;2.33;;;16.20;99.90;;;;;;5012449;28;20053;-66
2022/11/02 09:35:23;;;;;;;9.70;1.95;;;16.10;99.90;;;;;;5013308;28;20475;-68
2022/11/02 09:37:49;;;;;;;8.75;2.20;;;16.00;99.90;;;;;;5014042;28;20050;-67
2022/11/02 09:40:20;;;;;;;8.50;2.13;;;16.00;99.90;;;;;;5013620;28;20461;-67
2022/11/02 09:43:02;;;;;;;8.07;1.65;;;15.90;99.90;;;;;;5013700;28;20367;-68
2022/11/02 09:45:32;;;;;;;10.43;2.38;;;15.80;99.90;;;;;;5011234;28;20420;-68
2022/11/02 09:48:03;;;;;;;9.40;2.00;;;15.80;99.90;;;;;;5012383;28;20441;-68
2022/11/02 09:50:50;;;;;;;14.52;4.75;;;15.60;99.90;;;;;;5012404;28;20033;-68
2022/11/02 09:53:21;;;;;;;10.10;2.30;;;15.60;99.90;;;;;;5012240;28;20022;-68
2022/11/02 09:55:53;;;;;;;12.18;1.92;;;15.60;99.90;;;;;;5013387;28;20049;-70
2022/11/02 09:58:28;;;;;;;14.25;2.30;;;15.80;99.90;;;;;;5013413;28;20032;-69
2022/11/02 10:00:58;;;;;;;11.70;1.90;;;16.10;99.90;;;;;;5013947;28;20108;-68
2022/11/02 10:03:38;;;;;;;11.38;2.65;;;16.40;99.90;;;;;;5016997;28;20014;-70
2022/11/02 10:06:17;;;;;;;8.68;2.15;;;16.60;99.90;;;;;;5015624;28;20037;-68
2022/11/02 10:08:48;;;;;;;14.40;2.58;;;16.60;99.90;;;;;;5013173;28;20030;-70
2022/11/02 10:11:37;;;;;;;6.55;1.70;;;16.50;99.90;;;;;;5006011;28;20026;-69
2022/11/02 10:14:22;;;;;;;8.07;2.08;;;16.60;99.90;;;;;;4997728;28;20106;-70
2022/11/02 10:16:57;;;;;;;8.82;1.58;;;16.90;99.90;;;;;;4997375;28;20479;-69
2022/11/02 10:19:23;;;;;;;8.32;2.47;;;17.40;99.90;;;;;;4995513;28;20034;-67
2022/11/02 10:21:56;;;;;;;16.27;2.20;;;17.70;99.90;;;;;;4996298;28;20019;-67
2022/11/02 10:24:29;;;;;;;10.20;2.20;;;17.40;99.90;;;;;;4995921;28;20034;-67
2022/11/02 10:27:05;;;;;;;8.65;1.98;;;17.50;99.90;;;;;;4996069;28;20015;-66
2022/11/02 10:29:36;;;;;;;11.68;2.15;;;17.50;99.90;;;;;;4997523;28;20547;-72
2022/11/02 10:32:02;;;;;;;11.80;2.25;;;17.20;99.90;;;;;;4997324;28;20026;-68
2022/11/02 10:34:29;;;;;;;11.77;2.22;;;16.90;99.90;;;;;;5008899;28;20062;-66
2022/11/02 10:37:19;;;;;;;14.02;2.13;;;17.20;99.90;;;;;;5015035;28;20510;-67
2022/11/02 10:40:24;;;;;;;13.95;2.20;;;17.60;99.90;;;;;;5014898;28;20022;-68
2022/11/02 10:43:16;;;;;;;14.20;3.03;;;18.50;99.90;;;;;;4999183;28;20383;-68
2022/11/02 10:45:59;;;;;;;12.00;2.78;;;19.10;99.90;;;;;;4996172;28;20054;-68
2022/11/02 10:48:52;;;;;;;10.10;1.98;;;19.30;99.90;;;;;;4994904;28;20034;-67
2022/11/02 10:51:20;;;;;;;13.82;2.30;;;19.10;99.90;;;;;;4995361;28;20037;-67
2022/11/02 10:53:48;;;;;;;13.52;2.20;;;18.80;99.90;;;;;;4994987;28;20034;-69
2022/11/02 10:56:21;;;;;;;11.80;2.72;;;18.20;99.90;;;;;;4996578;28;20038;-68
2022/11/02 10:58:58;;;;;;;10.05;2.38;;;17.90;99.90;;;;;;4996049;28;20430;-68
2022/11/02 11:01:25;;;;;;;11.50;2.35;;;17.70;99.90;;;;;;4997442;28;20025;-69
2022/11/02 11:04:21;;;;;;;11.23;1.92;;;17.40;99.90;;;;;;4997781;28;20364;-68
2022/11/02 11:06:47;;;;;;;16.08;2.72;;;17.30;99.90;;;;;;4993650;28;20062;-68
2022/11/02 11:09:15;;;;;;;12.10;2.25;;;17.10;99.90;;;;;;4995597;28;20058;-68
2022/11/02 11:11:51;;;;;;;9.50;2.13;;;17.00;99.90;;;;;;5007895;28;20034;-69
2022/11/02 11:14:20;;;;;;;9.77;2.08;;;16.80;99.90;;;;;;5015036;28;20022;-69
2022/11/02 11:16:50;;;;;;;12.18;2.10;;;16.80;99.90;;;;;;5009281;28;20083;-69
2022/11/02 11:19:33;;;;;;;9.68;1.80;;;16.70;99.90;;;;;;5051061;23;20040;-73
2022/11/02 11:21:59;;;;;;;10.30;1.80;;;16.50;99.90;;;;;;5033193;28;20032;-70
2022/11/02 11:24:31;;;;;;;9.63;2.00;;;16.50;99.90;;;;;;5033066;28;20033;-68
2022/11/02 11:27:00;;;;;;;11.93;1.80;;;16.60;99.90;;;;;;5032927;28;20111;-71
2022/11/02 11:29:33;;;;;;;10.00;1.90;;;16.60;99.90;;;;;;5039230;28;20089;-72
2022/11/02 11:32:00;;;;;;;8.80;1.92;;;16.30;99.90;;;;;;5044208;28;20041;-70
2022/11/02 11:34:32;;;;;;;9.27;1.67;;;16.20;99.90;;;;;;5032885;28;20027;-71
2022/11/02 11:37:10;;;;;;;9.48;1.88;;;16.30;99.90;;;;;;5033021;28;20488;-71
2022/11/02 11:39:39;;;;;;;10.95;2.15;;;16.20;99.90;;;;;;5032741;28;20028;-72
2022/11/02 11:42:16;;;;;;;12.13;2.42;;;16.20;99.90;;;;;;5032578;28;20021;-72
2022/11/02 11:44:49;;;;;;;;;;;16.20;99.90;;;;;;5033061;28;20500;-72
2022/11/02 11:47:15;;;;;;;10.43;2.05;;;16.20;99.90;;;;;;5032626;28;20284;-72
2022/11/02 11:49:50;;;;;;;;;;;16.20;99.90;;;;;;5033869;28;20026;-72
2022/11/02 11:52:26;;;;;;;13.73;2.67;;;16.20;99.90;;;;;;5036588;28;20007;-72
2022/11/02 11:54:55;;;;;;;12.18;3.13;;;16.20;99.90;;;;;;5035944;28;20021;-72
2022/11/02 11:57:30;;;;;;;11.65;2.50;;;16.10;99.90;;;;;;5033987;28;20021;-72
2022/11/02 11:59:58;;;;;;;10.60;2.22;;;16.10;99.90;;;;;;5035056;28;20032;-71
2022/11/02 12:02:36;;;;;;;12.43;1.83;;;16.30;99.90;;;;;;5036185;28;20040;-71
2022/11/02 12:05:10;;;;;;;9.48;2.00;;;16.40;99.90;;;;;;5033091;28;20048;-71
2022/11/02 12:08:30;;;;;;;10.32;2.10;;;16.40;99.90;;;;;;5032919;28;20025;-72
2022/11/02 12:11:19;;;;;;;17.50;2.40;;;16.50;99.90;;;;;;4937420;29;20106;-72
2022/11/02 12:14:07;;;;;;;7.80;1.67;;;16.60;99.90;;;;;;4984012;28;20044;-72
2022/11/02 12:17:05;;;;;;;8.55;1.98;;;16.60;99.90;;;;;;5032380;28;20111;-72
2022/11/02 12:19:49;;;;;;;10.93;1.95;;;16.70;99.90;;;;;;5033546;28;20030;-72
2022/11/02 12:22:31;;;;;;;24.73;2.67;;;16.70;99.90;;;;;;5033454;28;20022;-70
2022/11/02 12:25:12;;;;;;;7.68;2.15;;;16.80;99.90;;;;;;5025772;28;20487;-69
2022/11/02 12:27:52;;;;;;;11.98;2.13;;;16.90;99.90;;;;;;5012452;28;20029;-69
2022/11/02 12:30:28;;;;;;;7.55;1.70;;;16.90;99.90;;;;;;5021696;28;20025;-70
2022/11/02 12:33:32;;;;;;;12.50;2.30;;;16.80;99.90;;;;;;5032020;28;20029;-69
2022/11/02 12:36:01;;;;;;;12.23;1.95;;;16.80;99.90;;;;;;5034105;28;20071;-71
2022/11/02 12:38:42;;;;;;;9.90;2.00;;;16.80;99.90;;;;;;5033171;28;20022;-70
2022/11/02 12:41:28;;;;;;;7.07;1.40;;;16.80;99.90;;;;;;5033223;28;20389;-70
2022/11/02 12:44:11;;;;;;;8.13;1.90;;;16.80;99.90;;;;;;5031899;28;20112;-70
2022/11/02 12:47:05;;;;;;;8.70;1.60;;;16.90;99.90;;;;;;5032981;28;20025;-69
2022/11/02 12:49:59;;;;;;;11.27;2.00;;;16.80;99.90;;;;;;5032998;28;20081;-69
2022/11/02 12:52:30;;;;;;;10.77;1.75;;;16.70;99.90;;;;;;5032436;28;20527;-69
2022/11/02 12:54:59;;;;;;;12.95;2.08;;;16.70;99.90;;;;;;5033595;28;20025;-70
2022/11/02 12:57:28;;;;;;;9.55;1.98;;;16.70;99.90;;;;;;5029023;28;20028;-70
2022/11/02 12:59:59;;;;;;;11.05;1.90;;;16.60;99.90;;;;;;5013346;28;20076;-70
2022/11/02 13:02:25;;;;;;;7.22;1.90;;;16.70;99.90;;;;;;5014181;28;20037;-69
2022/11/02 13:05:08;;;;;;;11.17;2.53;;;16.70;99.90;;;;;;5013984;28;20030;-70
2022/11/02 13:07:42;;;;;;;10.80;2.20;;;16.80;99.90;;;;;;5014758;28;20041;-69
2022/11/02 13:10:29;;;;;;;8.10;1.48;;;17.10;99.90;;;;;;5033699;28;20056;-69
2022/11/02 13:12:57;;;;;;;;;;;17.10;99.90;;;;;;5033793;28;20397;-70
2022/11/02 13:15:25;;;;;;;10.15;1.92;;;17.00;99.90;;;;;;5032570;28;19940;-69
2022/11/02 13:18:04;;;;;;;13.98;2.45;;;16.90;99.90;;;;;;5031964;28;20390;-70
2022/11/02 13:20:43;;;;;;;8.50;2.00;;;16.80;99.90;;;;;;5014199;28;20026;-73
2022/11/02 13:23:46;;;;;;;11.52;2.70;;;16.80;99.90;;;;;;5013074;28;20022;-72
2022/11/02 13:26:22;;;;;;;11.38;2.00;;;16.80;99.90;;;;;;5013421;28;20022;-73
2022/11/02 13:28:53;;;;;;;9.07;2.03;;;16.70;99.90;;;;;;5011926;28;20033;-73
2022/11/02 13:31:30;;;;;;;7.95;1.63;;;16.70;99.90;;;;;;5013519;28;20450;-73
2022/11/02 13:33:59;;;;;;;6.50;1.67;;;16.70;99.90;;;;;;5011771;28;20125;-72
2022/11/02 13:36:25;;;;;;;9.77;2.00;;;16.70;99.90;;;;;;5020612;28;20514;-73
2022/11/02 13:39:01;;;;;;;11.75;1.95;;;16.60;99.90;;;;;;5038134;28;20045;-73
2022/11/02 13:41:47;;;;;;;10.82;2.00;;;16.60;99.90;;;;;;5035783;28;20117;-70
2022/11/02 13:44:26;;;;;;;10.70;2.08;;;16.60;99.90;;;;;;5035063;28;20481;-70
2022/11/02 13:46:58;;;;;;;9.85;2.08;;;16.70;99.90;;;;;;5036769;28;20029;-69
2022/11/02 13:49:29;;;;;;;11.32;1.83;;;16.60;99.90;;;;;;5036226;28;20021;-70
2022/11/02 13:52:03;;;;;;;9.27;2.30;;;16.60;99.90;;;;;;5036200;28;20029;-69
2022/11/02 13:54:31;;;;;;;8.60;2.70;;;16.50;99.90;;;;;;5034810;28;20026;-69
2022/11/02 13:56:58;;;;;;;12.13;1.92;;;16.50;99.90;;;;;;5036490;28;20075;-69
2022/11/02 13:59:30;;;;;;;11.95;1.90;;;16.60;99.90;;;;;;5035026;28;20026;-70
2022/11/02 14:01:59;;;;;;;11.73;2.40;;;16.50;99.90;;;;;;5032127;28;20530;-70
2022/11/02 14:04:26;;;;;;;9.73;2.15;;;16.60;99.90;;;;;;5023391;28;20021;-69
2022/11/02 14:06:53;;;;;;;11.23;2.33;;;16.40;99.90;;;;;;5035634;28;20032;-70
2022/11/02 14:09:31;;;;;;;6.63;2.20;;;16.20;99.90;;;;;;5035790;28;20030;-70
2022/11/02 14:12:16;;;;;;;10.27;2.28;;;16.30;99.90;;;;;;5015801;28;20084;-70
2022/11/02 14:14:42;;;;;;;14.00;2.08;;;16.30;99.90;;;;;;5016519;28;20053;-70
2022/11/02 14:17:17;;;;;;;9.07;1.85;;;16.30;99.90;;;;;;5017115;28;20037;-69
2022/11/02 14:19:45;;;;;;;8.98;1.70;;;16.40;99.90;;;;;;5016133;28;20033;-69
2022/11/02 14:22:14;;;;;;;10.65;1.80;;;16.40;99.90;;;;;;5015741;28;20097;-69
2022/11/02 14:24:39;;;;;;;10.02;1.92;;;16.30;99.90;;;;;;5014883;28;20084;-69
2022/11/02 14:27:10;;;;;;;10.52;1.63;;;16.30;99.90;;;;;;5023793;28;20026;-70
2022/11/02 14:29:45;;;;;;;6.72;1.50;;;16.30;99.90;;;;;;5036557;28;20034;-70
2022/11/02 14:32:20;;;;;;;10.27;2.00;;;16.20;99.90;;;;;;5036496;28;20482;-69
2022/11/02 14:35:21;;;;;;;8.27;2.17;;;16.20;99.90;;;;;;5036851;28;20497;-72
2022/11/02 14:38:18;;;;;;;12.75;2.70;;;16.20;99.90;;;;;;5037522;28;20111;-72
2022/11/02 14:41:15;;;;;;;10.98;2.50;;;16.20;99.90;;;;;;5036303;28;20056;-73
2022/11/02 14:44:24;;;;;;;11.13;2.22;;;16.10;99.90;;;;;;5037673;28;20021;-73
2022/11/02 14:47:06;;;;;;;;;;;16.10;99.90;;;;;;5036522;28;20128;-69
2022/11/02 14:49:38;;;;;;;9.30;2.45;;;16.00;99.90;;;;;;5026481;28;19905;-70
2022/11/02 14:52:30;;;;;;;9.60;2.22;;;16.00;99.90;;;;;;5035899;28;20036;-74
2022/11/02 14:55:00;;;;;;;7.82;1.48;;;15.90;99.90;;;;;;5033955;28;20025;-73
2022/11/02 14:57:29;;;;;;;13.43;2.30;;;15.90;99.90;;;;;;5033700;28;20022;-71
2022/11/02 14:59:58;;;;;;;7.93;2.08;;;15.90;99.90;;;;;;5034144;28;20075;-71
2022/11/02 15:02:35;;;;;;;9.32;1.77;;;15.90;99.90;;;;;;5015000;28;20034;-71
2022/11/02 15:05:04;;;;;;;10.38;2.10;;;15.80;99.90;;;;;;5015504;28;20101;-71
2022/11/02 15:07:40;;;;;;;9.70;2.17;;;15.80;99.90;;;;;;5013650;28;20429;-70
2022/11/02 15:10:15;;;;;;;11.55;2.35;;;15.80;99.90;;;;;;5029793;28;20031;-71
2022/11/02 15:12:46;;;;;;;12.65;2.30;;;15.70;99.90;;;;;;5017009;28;20504;-70
2022/11/02 15:15:30;;;;;;;11.63;2.53;;;15.70;99.90;;;;;;5015597;28;20540;-75
2022/11/02 15:17:55;;;;;;;13.93;2.00;;;15.70;99.90;;;;;;5014223;28;20033;-73
2022/11/02 15:20:32;;;;;;;14.70;3.10;;;15.70;99.90;;;;;;5014454;28;20073;-73
2022/11/02 15:23:03;;;;;;;10.05;2.03;;;15.70;99.90;;;;;;5021695;28;20028;-73
2022/11/02 15:25:40;;;;;;;13.38;3.08;;;15.60;99.90;;;;;;5054935;28;20485;-73
2022/11/02 15:28:10;;;;;;;10.68;2.08;;;15.50;99.90;;;;;;5053802;28;20429;-73
2022/11/02 15:30:45;;;;;;;10.90;2.28;;;15.40;99.90;;;;;;5051969;28;20033;-73
2022/11/02 15:33:32;;;;;;;11.45;2.58;;;15.40;99.90;;;;;;5031655;28;20029;-73
2022/11/02 15:35:59;;;;;;;15.73;2.85;;;15.40;99.90;;;;;;5031583;28;20034;-73
2022/11/02 15:38:29;;;;;;;9.02;3.05;;;15.30;99.90;;;;;;5040444;28;20116;-74
2022/11/02 15:41:19;;;;;;;6.90;2.38;;;15.20;99.90;;;;;;5029052;28;20026;-73
2022/11/02 15:43:45;;;;;;;17.08;5.15;;;15.10;99.90;;;;;;5024482;28;20021;-74
2022/11/02 15:46:41;;;;;;;13.40;2.77;;;15.10;99.90;;;;;;5031087;28;20064;-74
2022/11/02 15:49:27;;;;;;;8.55;2.33;;;15.10;99.90;;;;;;5032093;28;20038;-73
2022/11/02 15:52:34;;;;;;;11.05;2.03;;;15.10;99.90;;;;;;5027032;28;20086;-73
2022/11/02 15:55:02;;;;;;;14.57;2.97;;;15.00;99.90;;;;;;5029106;28;20166;-73
2022/11/02 15:57:40;;;;;;;13.90;2.15;;;14.90;99.90;;;;;;5023547;28;20099;-73
2022/11/02 16:00:12;;;;;;;10.32;2.80;;;14.90;99.90;;;;;;5033199;28;20097;-74
2022/11/02 16:02:45;;;;;;;13.77;2.50;;;14.90;99.90;;;;;;5033953;28;20036;-73
2022/11/02 16:05:19;;;;;;;13.15;2.30;;;14.80;99.90;;;;;;5024089;28;20082;-73
2022/11/02 16:07:46;;;;;;;9.80;2.60;;;14.60;99.90;;;;;;5034352;28;20113;-72
2022/11/02 16:10:24;;;;;;;11.70;2.15;;;14.60;99.90;;;;;;5027430;28;20077;-73
2022/11/02 16:13:06;;;;;;;11.00;2.55;;;14.50;99.90;;;;;;5013251;28;20018;-73
2022/11/02 16:15:32;;;;;;;11.65;3.13;;;14.40;99.90;;;;;;5013004;28;20493;-72
2022/11/02 16:17:58;;;;;;;12.65;2.50;;;14.30;99.90;;;;;;5012056;28;20034;-72
2022/11/02 16:20:28;;;;;;;12.43;2.53;;;14.30;99.90;;;;;;5013861;28;20109;-72
2022/11/02 16:22:55;;;;;;;12.18;2.45;;;14.20;99.90;;;;;;5014058;28;20026;-72
2022/11/02 16:25:40;;;;;;;11.35;2.97;;;14.20;99.90;;;;;;5013858;28;20030;-73
2022/11/02 16:28:36;;;;;;;12.77;3.47;;;14.30;99.90;;;;;;5013682;28;20066;-73
2022/11/02 16:31:01;;;;;;;13.65;3.20;;;14.30;99.90;;;;;;5012157;28;20029;-73
2022/11/02 16:33:49;;;;;;;13.77;3.27;;;14.20;99.90;;;;;;5013570;28;20030;-72
2022/11/02 16:36:16;;;;;;;;;;;14.20;99.90;;;;;;5012049;28;20040;-72
2022/11/02 16:39:13;;;;;;;12.80;2.55;;;14.20;99.90;;;;;;5011949;28;19949;-72
2022/11/02 16:41:40;;;;;;;16.58;3.47;;;14.30;99.90;;;;;;5012583;28;20053;-73
2022/11/02 16:44:19;;;;;;;15.55;3.78;;;14.20;99.90;;;;;;5013897;28;20057;-74
2022/11/02 16:46:52;;;;;;;15.70;4.32;;;14.10;99.90;;;;;;5012653;28;20034;-73
2022/11/02 16:49:42;;;;;;;17.02;3.15;;;14.00;99.90;;;;;;5012439;28;20030;-72
2022/11/02 16:52:22;;;;;;;16.10;3.85;;;14.00;99.90;;;;;;5005642;28;20064;-73
2022/11/02 16:54:48;;;;;;;17.20;3.40;;;13.90;99.90;;;;;;5014084;28;20026;-74
2022/11/02 16:57:41;;;;;;;13.07;4.03;;;13.90;99.90;;;;;;5014011;28;20359;-74
2022/11/02 17:00:18;;;;;;;14.15;3.95;;;13.70;99.90;;;;;;5012385;28;20052;-73
2022/11/02 17:02:44;;;;;;;19.10;4.72;;;13.70;99.90;;;;;;5012492;28;20052;-73
2022/11/02 17:05:22;;;;;;;13.25;3.88;;;13.70;99.90;;;;;;5013438;28;20037;-73
2022/11/02 17:07:55;;;;;;;16.20;5.13;;;13.70;99.90;;;;;;5013224;28;20030;-72
2022/11/02 17:10:25;;;;;;;26.08;6.68;;;13.60;99.90;;;;;;5018926;28;20071;-72
2022/11/02 17:12:50;;;;;;;19.48;6.45;;;13.50;99.90;;;;;;5037413;28;20032;-73
2022/11/02 17:15:19;;;;;;;15.47;6.30;;;13.50;99.90;;;;;;5035819;28;20025;-73
2022/11/02 17:17:45;;;;;;;19.77;5.15;;;13.50;99.90;;;;;;5036467;28;20029;-73
2022/11/02 17:20:13;;;;;;;18.88;4.53;;;13.40;99.90;;;;;;5038478;28;20083;-73
2022/11/02 17:22:57;;;;;;;18.13;5.03;;;13.40;99.90;;;;;;5036467;28;20120;-72
2022/11/02 17:25:23;;;;;;;15.73;4.53;;;13.40;99.90;;;;;;5036261;28;20029;-72
2022/11/02 17:27:50;;;;;;;12.87;3.80;;;13.40;99.90;;;;;;5037605;28;20028;-72
2022/11/02 17:30:34;;;;;;;13.30;3.80;;;13.40;99.90;;;;;;5036008;28;20033;-73
2022/11/02 17:33:12;;;;;;;14.18;3.58;;;13.40;99.90;;;;;;5037302;28;20030;-72
2022/11/02 17:35:47;;;;;;;11.50;4.05;;;13.30;99.90;;;;;;5040093;28;20033;-74
2022/11/02 17:38:14;;;;;;;11.57;4.30;;;13.30;99.90;;;;;;5035502;28;20055;-71
2022/11/02 17:40:40;;;;;;;11.10;3.58;;;13.20;99.90;;;;;;5037344;28;20021;-72
2022/11/02 17:43:05;;;;;;;15.63;4.80;;;13.40;99.90;;;;;;5036712;28;20112;-72
2022/11/02 17:45:38;;;;;;;14.20;3.93;;;13.30;99.90;;;;;;5037827;28;20110;-71
2022/11/02 17:48:05;;;;;;;14.50;4.03;;;13.30;99.90;;;;;;5051842;28;20021;-73
2022/11/02 17:50:33;;;;;;;13.07;3.75;;;13.30;99.90;;;;;;5043542;28;20029;-73
2022/11/02 17:53:00;;;;;;;14.00;4.15;;;13.30;99.90;;;;;;5036309;28;20370;-72
2022/11/02 17:55:28;;;;;;;17.67;4.15;;;13.20;99.90;;;;;;5037451;28;20065;-73
2022/11/02 17:57:54;;;;;;;11.70;3.63;;;13.10;99.90;;;;;;5036963;28;20021;-72
2022/11/02 18:00:20;;;;;;;12.90;3.85;;;13.10;99.90;;;;;;5035430;28;20433;-72
2022/11/02 18:02:51;;;;;;;18.50;4.40;;;13.20;99.90;;;;;;5035252;28;20064;-72
2022/11/02 18:05:21;;;;;;;15.68;3.97;;;13.10;99.90;;;;;;5036722;28;20483;-72
2022/11/02 18:07:46;;;;;;;14.25;3.58;;;13.10;99.90;;;;;;5034911;28;20029;-72
2022/11/02 18:10:12;;;;;;;15.07;4.30;;;13.00;99.90;;;;;;5036243;28;20036;-72